• Join FlightAware (Why Join?)
  • Login
  • US Flag 
04:42AM EDT


 

Airport Tracker/Info


-or-


 

Live Flight TrackerFlight Track Log ✈ MLN121 ✈ 23-Sep-2013 ✈ KJFK - KAGC

Flight Track Log - Related Links

Times and Time Zones

All times are in EDT time to prevent confusion due to time zone crossing. See the MLN121 flight status page for this flight to view local times or setup timezone preferences in your user account.

Time Position Orientation Groundspeed Altitude Reporting Facility
EDT Latitude Longitude Course Direction KTS MPH feet Rate Location/Type
05:29PM 40.5667 -73.9333 225° Southwest 272 313 8,500  Level New York TRACON
05:30PM 40.5000 -73.9833 210° Southwest 296 341 11,000 2,100 Climbing New York TRACON
05:31PM 40.4167 -74.0500 211° Southwest 347 399 12,700 1,620 Climbing New York TRACON
05:32PM 40.3619 -74.1214 225° Southwest 352 405 14,200 1,740 Climbing New York Center
05:33PM 40.6255 -74.4154 264° West  Level Estimated
05:33PM 40.3217 -74.2200 242° Southwest 345 397 16,000  Level New York Center
05:34PM 40.2681 -74.3425 240° Southwest 350 403 17,000 480 Climbing New York Center
05:35PM 40.2161 -74.4647 241° Southwest 365 420 17,000 180 Level New York Center
05:36PM 40.1939 -74.5778 256° West 365 420 17,400 840 Climbing New York Center
05:37PM 40.1878 -74.7025 266° West 354 407 18,800 1,260 Climbing New York Center
05:38PM 40.1769 -74.8350 264° West 359 413 20,000 660 Climbing New York Center
05:39PM 40.1639 -74.9672 263° West 365 420 20,100 960 Climbing New York Center
05:45PM 40.0950 -75.7900 263° West 378 435 27,300 1,020 Climbing FlightAware
05:46PM 40.0890 -75.8670 264° West 378 435 27,400 60 Climbing FlightAware
05:46PM 40.0830 -75.9370 264° West 378 435 27,400 480 Level FlightAware
05:47PM 40.0780 -76.0690 267° West 404 465 28,000 420 Climbing FlightAware
05:48PM 40.0750 -76.1460 267° West 404 465 28,000  Level FlightAware
05:48PM 40.0690 -76.2530 266° West 432 497 28,000  Level FlightAware
05:49PM 40.0630 -76.3580 266° West 404 465 28,000  Level FlightAware
05:49PM 40.0590 -76.4570 267° West 390 449 28,000  Level FlightAware
05:50PM 40.0530 -76.5270 264° West 406 467 28,000  Level FlightAware
05:51PM 40.0470 -76.6660 267° West 491 565 28,000  Level FlightAware
05:52PM 40.0450 -76.7300 268° West 233 268 28,000  Level FlightAware
05:52PM 40.0400 -76.8590 267° West 404 465 28,000  Level FlightAware
05:53PM 40.0320 -76.9540 264° West 404 465 28,000  Level FlightAware
05:54PM 40.0260 -77.0830 267° West 404 465 28,000  Level FlightAware
05:54PM 40.0240 -77.1600 268° West 404 465 28,000  Level FlightAware
05:55PM 40.0220 -77.2350 268° West 404 465 28,000  Level FlightAware
05:56PM 40.0200 -77.3110 268° West 404 465 28,000  Level FlightAware
05:56PM 40.0180 -77.3860 268° West 404 465 28,000  Level FlightAware
05:57PM 40.0160 -77.4690 268° West 404 465 28,000 -3,060 Level FlightAware
05:58PM 39.9872 -77.6994 268° West 411 473 23,700 -3,360 Descending Cleveland Center
05:59PM 39.9775 -77.8456 265° West 409 471 22,000 -840 Descending Cleveland Center
06:00PM 39.9692 -77.9864 266° West 396 456 22,000 -660 Level Cleveland Center
06:01PM 39.9747 -78.1275 273° West 390 449 20,700 -1,440 Descending Cleveland Center
06:02PM 39.9792 -78.2872 272° West 375 432 19,100 -1,440 Descending Cleveland Center
06:03PM 39.9833 -78.4208 272° West 371 427 17,800 -1,200 Descending Cleveland Center
06:04PM 39.9867 -78.5514 272° West 363 418 16,700 -1,140 Descending Cleveland Center
06:04PM 39.9869 -78.5981 270° West 358 412 16,300 -1,560 Descending Cleveland Center
06:04PM 39.9886 -78.6311 274° West 356 410 15,900 -1,140 Descending Cleveland Center
06:05PM 39.9897 -78.6789 272° West 354 407 15,500 -1,200 Descending Cleveland Center
06:05PM 39.9911 -78.7567 271° West 352 405 14,700 -1,260 Descending Cleveland Center
06:06PM 39.9933 -78.8050 273° West 351 404 14,200 -1,320 Descending Cleveland Center
06:06PM 39.9936 -78.8825 270° West 350 403 13,400 -1,500 Descending Cleveland Center
06:07PM 39.9972 -78.9567 274° West 351 404 12,700 -1,320 Descending Cleveland Center
06:07PM 39.9958 -79.0083 268° West 348 400 12,100 -1,200 Descending Cleveland Center
06:08PM 40.0036 -79.0669 280° West 345 397 11,500 -1,200 Descending Cleveland Center
06:08PM 40.0219 -79.1236 293° West 340 391 10,900 -1,260 Descending Cleveland Center
06:09PM 40.0406 -79.1786 294° West 337 388 10,200 -1,320 Descending Cleveland Center
06:09PM 40.0567 -79.2350 290° West 298 343 9,600 -1,200 Descending Cleveland Center
06:10PM 40.0736 -79.2872 293° West 305 351 9,000 -1,140 Descending Cleveland Center
06:10PM 40.0844 -79.3292 289° West 278 320 8,500 -1,200 Descending Cleveland Center
06:11PM 40.1039 -79.3925 292° West 288 331 7,800 -1,140 Descending Cleveland Center
06:11PM 40.1117 -79.4258 287° West 284 327 7,400 -1,080 Descending Cleveland Center
06:12PM 40.1311 -79.4872 293° West 283 326 6,700 -1,080 Descending Cleveland Center
06:13PM 40.1581 -79.5789 291° West 275 316 5,600 -840 Descending Cleveland Center
06:14PM 40.2047 -79.6569 308° West 276 318 5,000 -780 Descending Cleveland Center
06:15PM 40.2483 -79.7275 309° West 260 299 4,100 -900 Descending Cleveland Center
06:16PM 40.2983 -79.8053 310° West 239 275 3,200 -600 Descending Cleveland Center
06:17PM 40.3436 -79.8564 319° Northwest 226 260 2,900 -840 Descending Cleveland Center
06:18PM 40.3561 -79.9097 287° West 180 207 1,500 -780 Descending Cleveland Center
06:19PM 40.3583 -79.9606 273° West 173 199 1,300 -240 Descending Cleveland Center
06:21PM 40.3544 -79.9302 313° West  Level Estimated